Time;durP1;ratioP1;P1;durP2;ratioP2;P2;SDS_P1;SDS_P2;PMS_P1;PMS_P2;Temp;Humidity;BMP_temperature;BMP_pressure;BME280_temperature;BME280_humidity;BME280_pressure;Samples;Min_cycle;Max_cycle;Signal;HPM_P1;HPM_P2
2020/12/28 00:01:02;;;;;;;;;;;5.40;99.90;;;;;;5068045;28;19908;-75
2020/12/28 00:03:28;;;;;;;;;;;5.40;99.90;;;;;;5067874;28;19916;-75
2020/12/28 00:05:53;;;;;;;;;;;5.30;99.90;;;;;;5066312;28;19913;-77
2020/12/28 00:08:19;;;;;;;;;;;5.30;99.90;;;;;;5066379;28;19944;-77
2020/12/28 00:10:44;;;;;;;;;;;5.30;99.90;;;;;;5067833;28;20282;-79
2020/12/28 00:13:10;;;;;;;;;;;5.30;99.90;;;;;;5062378;28;20385;-77
2020/12/28 00:15:35;;;;;;;;;;;5.20;99.90;;;;;;5068774;28;20004;-77
2020/12/28 00:18:01;;;;;;;;;;;5.20;99.90;;;;;;5067433;28;19917;-78
2020/12/28 00:20:28;;;;;;;;;;;5.20;99.90;;;;;;5059536;28;19983;-79
2020/12/28 00:22:53;;;;;;;;;;;5.20;99.90;;;;;;5067588;28;19909;-77
2020/12/28 00:25:23;;;;;;;;;;;5.20;99.90;;;;;;5066368;28;19909;-78
2020/12/28 00:27:48;;;;;;;;;;;5.20;99.90;;;;;;5067145;28;19991;-77
2020/12/28 00:30:14;;;;;;;;;;;5.20;99.90;;;;;;5074292;28;20448;-77
2020/12/28 00:32:40;;;;;;;;;;;5.20;99.90;;;;;;5087713;28;20007;-77
2020/12/28 00:35:06;;;;;;;;;;;5.20;99.90;;;;;;5087795;28;19908;-77
2020/12/28 00:37:32;;;;;;;;;;;5.20;99.90;;;;;;5088742;28;19915;-77
2020/12/28 00:39:58;;;;;;;;;;;5.20;99.90;;;;;;5087391;28;19908;-74
2020/12/28 00:42:23;;;;;;;;;;;5.20;99.90;;;;;;5078695;28;19912;-75
2020/12/28 00:44:49;;;;;;;;;;;5.20;99.90;;;;;;5074188;28;19909;-77
2020/12/28 00:47:14;;;;;;;;;;;5.10;99.90;;;;;;5073542;28;19919;-77
2020/12/28 00:49:40;;;;;;;;;;;5.10;99.90;;;;;;5073850;28;19909;-74
2020/12/28 00:52:05;;;;;;;;;;;5.10;99.90;;;;;;5073879;28;19915;-79
2020/12/28 00:54:32;;;;;;;;;;;5.10;99.90;;;;;;5073967;28;19934;-77
2020/12/28 00:56:57;;;;;;;;;;;5.10;99.90;;;;;;5072472;28;19908;-77
2020/12/28 00:59:23;;;;;;;;;;;5.00;99.90;;;;;;5073735;28;20380;-75
2020/12/28 01:01:52;;;;;;;;;;;5.00;99.90;;;;;;5074062;28;19940;-75
2020/12/28 01:04:18;;;;;;;;;;;5.00;99.90;;;;;;5073632;28;19995;-78
2020/12/28 01:06:43;;;;;;;;;;;5.00;99.90;;;;;;5072327;28;20432;-77
2020/12/28 01:09:09;;;;;;;;;;;5.00;99.90;;;;;;5073227;28;19909;-77
2020/12/28 01:11:34;;;;;;;;;;;5.00;99.90;;;;;;5073321;28;19916;-78
2020/12/28 01:14:00;;;;;;;;;;;5.00;99.90;;;;;;5073510;28;19916;-77
2020/12/28 01:16:25;;;;;;;;;;;4.90;99.90;;;;;;5073034;28;20357;-75
2020/12/28 01:18:51;;;;;;;;;;;4.90;99.90;;;;;;5073239;28;19909;-75
2020/12/28 01:21:20;;;;;;;;;;;4.90;99.90;;;;;;5073278;28;19908;-77
2020/12/28 01:23:45;;;;;;;;;;;4.90;99.90;;;;;;5073343;28;19916;-74
2020/12/28 01:26:11;;;;;;;;;;;4.90;99.90;;;;;;5072744;28;19908;-77
2020/12/28 01:28:36;;;;;;;;;;;4.90;99.90;;;;;;5073123;28;20277;-77
2020/12/28 01:31:02;;;;;;;;;;;5.00;99.90;;;;;;5071789;28;19952;-77
2020/12/28 01:33:27;;;;;;;;;;;5.00;99.90;;;;;;5073340;28;19959;-77
2020/12/28 01:35:52;;;;;;;;;;;5.00;99.90;;;;;;5071502;28;19915;-76
2020/12/28 01:38:18;;;;;;;;;;;5.00;99.90;;;;;;5071995;28;20311;-74
2020/12/28 01:40:43;;;;;;;;;;;5.00;99.90;;;;;;5072839;28;19912;-75
2020/12/28 01:43:09;;;;;;;;;;;5.00;99.90;;;;;;5072866;28;19908;-75
2020/12/28 01:45:34;;;;;;;;;;;5.00;99.90;;;;;;5072496;28;19912;-74
2020/12/28 01:48:00;;;;;;;;;;;5.00;99.90;;;;;;5072579;28;19913;-74
2020/12/28 01:50:25;;;;;;;;;;;5.00;99.90;;;;;;5072668;28;19959;-74
2020/12/28 01:52:51;;;;;;;;;;;4.90;99.90;;;;;;5072438;28;19909;-76
2020/12/28 01:55:16;;;;;;;;;;;4.90;99.90;;;;;;5070825;28;19909;-76
2020/12/28 01:57:43;;;;;;;;;;;4.90;99.90;;;;;;5072163;28;19914;-75
2020/12/28 02:00:08;;;;;;;;;;;4.80;99.90;;;;;;5072481;28;20000;-74
2020/12/28 02:02:34;;;;;;;;;;;4.80;99.90;;;;;;5072373;28;20335;-75
2020/12/28 02:05:00;;;;;;;;;;;4.80;99.90;;;;;;5072474;28;20490;-75
2020/12/28 02:07:26;;;;;;;;;;;4.70;99.90;;;;;;5073507;28;19988;-76
2020/12/28 02:09:52;;;;;;;;;;;4.70;99.90;;;;;;5081175;28;19959;-74
2020/12/28 02:12:19;;;;;;;;;;;4.60;99.90;;;;;;5072233;28;19909;-74
2020/12/28 02:14:45;;;;;;;;;;;4.60;99.90;;;;;;5071123;28;20015;-74
2020/12/28 02:17:10;;;;;;;;;;;4.60;99.90;;;;;;5072162;28;19940;-74
2020/12/28 02:19:36;;;;;;;;;;;4.50;99.90;;;;;;5072070;28;19999;-74
2020/12/28 02:22:01;;;;;;;;;;;4.50;99.90;;;;;;5070856;28;19938;-74
2020/12/28 02:24:27;;;;;;;;;;;4.40;99.90;;;;;;5071894;28;20364;-75
2020/12/28 02:26:52;;;;;;;;;;;4.40;99.90;;;;;;5071957;28;19908;-74
2020/12/28 02:29:18;;;;;;;;;;;4.40;99.90;;;;;;5071636;28;20357;-77
2020/12/28 02:31:43;;;;;;;;;;;4.40;99.90;;;;;;5071661;28;20284;-74
2020/12/28 02:34:09;;;;;;;;;;;4.40;99.90;;;;;;5070803;28;20285;-75
2020/12/28 02:36:34;;;;;;;;;;;4.40;99.90;;;;;;5069084;28;19959;-75
2020/12/28 02:38:59;;;;;;;;;;;4.40;99.90;;;;;;5071430;28;19909;-75
2020/12/28 02:41:25;;;;;;;;;;;4.30;99.90;;;;;;5071937;28;20011;-75
2020/12/28 02:43:51;;;;;;;;;;;4.30;99.90;;;;;;5071476;28;19909;-75
2020/12/28 02:46:17;;;;;;;;;;;4.30;99.90;;;;;;5069761;28;19913;-75
2020/12/28 02:48:43;;;;;;;;;;;4.20;99.90;;;;;;5071667;28;19999;-75
2020/12/28 02:51:11;;;;;;;;;;;4.20;99.90;;;;;;5071449;28;20460;-75
2020/12/28 02:53:36;;;;;;;;;;;4.20;99.90;;;;;;5070146;28;19915;-77
2020/12/28 02:56:02;;;;;;;;;;;4.20;99.90;;;;;;5071081;28;20010;-75
2020/12/28 02:58:27;;;;;;;;;;;4.20;99.90;;;;;;5062279;28;19962;-74
2020/12/28 03:00:52;;;;;;;;;;;4.10;99.90;;;;;;5069967;28;19908;-76
2020/12/28 03:03:18;;;;;;;;;;;4.00;99.90;;;;;;5071575;28;20000;-74
2020/12/28 03:05:43;;;;;;;;;;;4.00;99.90;;;;;;5070730;28;19915;-75
2020/12/28 03:08:09;;;;;;;;;;;4.00;99.90;;;;;;5071198;28;19908;-75
2020/12/28 03:10:34;;;;;;;;;;;4.00;99.90;;;;;;5071496;28;20010;-75
2020/12/28 03:13:00;;;;;;;;;;;4.00;99.90;;;;;;5071096;28;19916;-75
2020/12/28 03:15:25;;;;;;;;;;;4.00;99.90;;;;;;5069841;28;20360;-75
2020/12/28 03:17:51;;;;;;;;;;;3.90;99.90;;;;;;5070993;28;19916;-76
2020/12/28 03:20:16;;;;;;;;;;;3.90;99.90;;;;;;5067435;28;19915;-75
2020/12/28 03:22:41;;;;;;;;;;;3.80;99.90;;;;;;5071064;28;19958;-75
2020/12/28 03:25:07;;;;;;;;;;;3.80;99.90;;;;;;5071012;28;20065;-77
2020/12/28 03:27:32;;;;;;;;;;;3.80;99.90;;;;;;5069102;28;19908;-75
2020/12/28 03:29:58;;;;;;;;;;;3.80;99.90;;;;;;5071014;28;19916;-74
2020/12/28 03:32:23;;;;;;;;;;;3.70;99.90;;;;;;5069768;28;20377;-76
2020/12/28 03:34:49;;;;;;;;;;;3.70;99.90;;;;;;5069680;28;19908;-75
2020/12/28 03:37:14;;;;;;;;;;;3.70;99.90;;;;;;5070614;28;20004;-75
2020/12/28 03:39:40;;;;;;;;;;;3.70;99.90;;;;;;5070713;28;20388;-75
2020/12/28 03:42:05;;;;;;;;;;;3.70;99.90;;;;;;5067660;28;19954;-75
2020/12/28 03:44:31;;;;;;;;;;;3.70;99.90;;;;;;5070892;28;19908;-75
2020/12/28 03:46:56;;;;;;;;;;;3.70;99.90;;;;;;5070558;28;19944;-75
2020/12/28 03:49:21;;;;;;;;;;;3.70;99.90;;;;;;5064858;28;20376;-78
2020/12/28 03:51:47;;;;;;;;;;;3.60;99.90;;;;;;5070452;28;19916;-75
2020/12/28 03:54:13;;;;;;;;;;;3.70;99.90;;;;;;5071243;28;20329;-75
2020/12/28 03:56:38;;;;;;;;;;;3.60;99.90;;;;;;5070328;28;19912;-75
2020/12/28 03:59:03;;;;;;;;;;;3.60;99.90;;;;;;5070627;28;19919;-75
2020/12/28 04:01:29;;;;;;;;;;;3.60;99.90;;;;;;5070780;28;20149;-75
2020/12/28 04:03:54;;;;;;;;;;;3.60;99.90;;;;;;5070720;28;19913;-75
2020/12/28 04:06:20;;;;;;;;;;;3.70;99.90;;;;;;5070412;28;19915;-78
2020/12/28 04:08:45;;;;;;;;;;;3.70;99.90;;;;;;5070477;28;19908;-75
2020/12/28 04:11:11;;;;;;;;;;;3.70;99.90;;;;;;5070528;28;19982;-75
2020/12/28 04:13:36;;;;;;;;;;;3.70;99.90;;;;;;5070481;28;19987;-75
2020/12/28 04:16:02;;;;;;;;;;;3.70;99.90;;;;;;5070275;28;19956;-75
2020/12/28 04:18:27;;;;;;;;;;;3.60;99.90;;;;;;5072049;28;19954;-74
2020/12/28 04:20:53;;;;;;;;;;;3.60;99.90;;;;;;5077990;28;19958;-75
2020/12/28 04:23:18;;;;;;;;;;;3.60;99.90;;;;;;5074613;28;20262;-74
2020/12/28 04:25:43;;;;;;;;;;;3.60;99.90;;;;;;5073775;28;19912;-75
2020/12/28 04:28:09;;;;;;;;;;;3.60;99.90;;;;;;5074000;28;19934;-75
2020/12/28 04:30:34;;;;;;;;;;;3.50;99.90;;;;;;5072610;28;19964;-76
2020/12/28 04:33:00;;;;;;;;;;;3.50;99.90;;;;;;5074171;28;19920;-75
2020/12/28 04:35:25;;;;;;;;;;;3.50;99.90;;;;;;5073978;28;20246;-77
2020/12/28 04:37:51;;;;;;;;;;;3.50;99.90;;;;;;5073562;28;19919;-77
2020/12/28 04:40:16;;;;;;;;;;;3.50;99.90;;;;;;5072640;28;20327;-75
2020/12/28 04:42:42;;;;;;;;;;;3.50;99.90;;;;;;5073682;28;20376;-74
2020/12/28 04:45:09;;;;;;;;;;;3.50;99.90;;;;;;5073859;28;19954;-74
2020/12/28 04:47:35;;;;;;;;;;;3.60;99.90;;;;;;5069570;28;19908;-75
2020/12/28 04:50:00;;;;;;;;;;;3.60;99.90;;;;;;5073481;28;19913;-75
2020/12/28 04:52:26;;;;;;;;;;;3.60;99.90;;;;;;5072459;28;19913;-75
2020/12/28 04:54:52;;;;;;;;;;;3.60;99.90;;;;;;5073778;28;20007;-75
2020/12/28 04:57:17;;;;;;;;;;;3.60;99.90;;;;;;5073154;28;19975;-75
2020/12/28 04:59:43;;;;;;;;;;;3.60;99.90;;;;;;5073427;28;19909;-74
2020/12/28 05:02:09;;;;;;;;;;;3.60;99.90;;;;;;5073462;28;20432;-74
2020/12/28 05:04:34;;;;;;;;;;;3.50;99.90;;;;;;5073870;28;19999;-75
2020/12/28 05:07:01;;;;;;;;;;;3.50;99.90;;;;;;5071760;28;20319;-75
2020/12/28 05:09:27;;;;;;;;;;;3.50;99.90;;;;;;5072067;28;19915;-74
2020/12/28 05:11:57;;;;;;;;;;;3.50;99.90;;;;;;5073147;28;20408;-74
2020/12/28 05:14:23;;;;;;;;;;;3.50;99.90;;;;;;5073381;28;19953;-74
2020/12/28 05:16:48;;;;;;;;;;;3.50;99.90;;;;;;5073080;28;20288;-75
2020/12/28 05:19:14;;;;;;;;;;;3.40;99.90;;;;;;5064842;28;20117;-77
2020/12/28 05:21:40;;;;;;;;;;;3.50;99.90;;;;;;5075647;28;20357;-74
2020/12/28 05:24:12;;;;;;;;;;;3.50;99.90;;;;;;5073055;28;20388;-75
2020/12/28 05:26:41;;;;;;;;;;;3.50;99.90;;;;;;5072642;28;19908;-74
2020/12/28 05:29:10;;;;;;;;;;;3.50;99.90;;;;;;5073034;28;19971;-74
2020/12/28 05:31:37;;;;;;;;;;;3.50;99.90;;;;;;5071447;28;19917;-78
2020/12/28 05:34:03;;;;;;;;;;;3.50;99.90;;;;;;5071720;28;19908;-75
2020/12/28 05:36:28;;;;;;;;;;;3.50;99.90;;;;;;5072430;28;19931;-74
2020/12/28 05:38:56;;;;;;;;;;;3.50;99.90;;;;;;5072472;28;19912;-78
2020/12/28 05:41:27;;;;;;;;;;;3.50;99.90;;;;;;5070874;28;19909;-75
2020/12/28 05:43:53;;;;;;;;;;;3.50;99.90;;;;;;5072686;28;19915;-75
2020/12/28 05:46:25;;;;;;;;;;;3.50;99.90;;;;;;5072224;28;20003;-75
2020/12/28 05:48:54;;;;;;;;;;;3.50;99.90;;;;;;5071185;28;19913;-76
2020/12/28 05:51:20;;;;;;;;;;;3.60;99.90;;;;;;5072328;28;19913;-75
2020/12/28 05:53:46;;;;;;;;;;;3.60;99.90;;;;;;5072500;28;20395;-75
2020/12/28 05:56:12;;;;;;;;;;;3.50;99.90;;;;;;5072190;28;20381;-75
2020/12/28 05:58:41;;;;;;;;;;;3.60;99.90;;;;;;5072289;28;19999;-74
2020/12/28 06:01:08;;;;;;;;;;;3.60;99.90;;;;;;5072461;28;19909;-75
2020/12/28 06:03:35;;;;;;;;;;;3.60;99.90;;;;;;5071028;28;19913;-75
2020/12/28 06:06:00;;;;;;;;;;;3.50;99.90;;;;;;5071614;28;19915;-75
2020/12/28 06:08:26;;;;;;;;;;;3.50;99.90;;;;;;5070774;28;19908;-74
2020/12/28 06:10:53;;;;;;;;;;;3.50;99.90;;;;;;5071806;28;19921;-75
2020/12/28 06:13:22;;;;;;;;;;;3.60;99.90;;;;;;5071858;28;20274;-75
2020/12/28 06:15:57;;;;;;;;;;;3.60;99.90;;;;;;5071708;28;19915;-76
2020/12/28 06:18:23;;;;;;;;;;;3.60;99.90;;;;;;5071865;28;19909;-75
2020/12/28 06:20:48;;;;;;;;;;;3.60;99.90;;;;;;5071805;28;20258;-75
2020/12/28 06:23:23;;;;;;;;;;;3.60;99.90;;;;;;5070948;28;19916;-75
2020/12/28 06:25:52;;;;;;;;;;;3.60;99.90;;;;;;5071398;28;19913;-75
2020/12/28 06:28:24;;;;;;;;;;;3.50;99.90;;;;;;5071653;28;20424;-75
2020/12/28 06:30:50;;;;;;;;;;;3.60;99.90;;;;;;5071372;28;20388;-75
2020/12/28 06:33:16;;;;;;;;;;;3.60;99.90;;;;;;5071877;28;19912;-76
2020/12/28 06:35:42;;;;;;;;;;;3.60;99.90;;;;;;5071303;28;19958;-76
2020/12/28 06:38:07;;;;;;;;;;;3.60;99.90;;;;;;5071773;28;19913;-75
2020/12/28 06:40:34;;;;;;;;;;;3.60;99.90;;;;;;5073760;28;19977;-75
2020/12/28 06:43:12;;;;;;;;;;;3.60;99.90;;;;;;5075296;28;20058;-75
2020/12/28 06:45:39;;;;;;;;;;;3.50;99.90;;;;;;5071209;28;19958;-77
2020/12/28 06:48:15;;;;;;;;;;;3.50;99.90;;;;;;5071741;28;20026;-75
2020/12/28 06:50:40;;;;;;;;;;;3.50;99.90;;;;;;5071356;28;19957;-75
2020/12/28 06:53:06;;;;;;;;;;;3.50;99.90;;;;;;5071433;28;19912;-77
2020/12/28 06:55:31;;;;;;;;;;;3.40;99.90;;;;;;5071405;28;19909;-75
2020/12/28 06:58:00;;;;;;;;;;;3.40;99.90;;;;;;5070920;28;19969;-75
2020/12/28 07:00:25;;;;;;;;;;;3.40;99.90;;;;;;5071398;28;19912;-74
2020/12/28 07:02:51;;;;;;;;;;;3.40;99.90;;;;;;5071553;28;19915;-75
2020/12/28 07:05:26;;;;;;;;;;;3.40;99.90;;;;;;5070081;28;19908;-75
2020/12/28 07:07:52;;;;;;;;;;;3.30;99.90;;;;;;5070758;28;19909;-75
2020/12/28 07:10:19;;;;;;;;;;;3.30;99.90;;;;;;5069292;28;19966;-75
2020/12/28 07:12:44;;;;;;;;;;;3.30;99.90;;;;;;5070980;28;20297;-76
2020/12/28 07:15:10;;;;;;;;;;;3.20;99.90;;;;;;5071171;28;19919;-75
2020/12/28 07:17:36;;;;;;;;;;;3.20;99.90;;;;;;5070723;28;20308;-75
2020/12/28 07:20:11;;;;;;;;;;;3.20;99.90;;;;;;5071068;28;19920;-75
2020/12/28 07:22:38;;;;;;;;;;;3.20;99.90;;;;;;5072093;28;19908;-75
2020/12/28 07:25:05;;;;;;;;;;;3.20;99.90;;;;;;5074239;28;19908;-75
2020/12/28 07:27:30;;;;;;;;;;;3.20;99.90;;;;;;5068998;28;19909;-75
2020/12/28 07:29:56;;;;;;;;;;;3.30;99.90;;;;;;5070942;28;20261;-75
2020/12/28 07:32:21;;;;;;;;;;;3.20;99.90;;;;;;5071079;28;20033;-75
2020/12/28 07:34:51;;;;;;;;;;;3.10;99.90;;;;;;5070860;28;19916;-75
2020/12/28 07:37:17;;;;;;;;;;;3.10;99.90;;;;;;5071329;28;20365;-75
2020/12/28 07:39:42;;;;;;;;;;;3.10;99.90;;;;;;5070389;28;19935;-75
2020/12/28 07:42:08;;;;;;;;;;;3.10;99.90;;;;;;5070887;28;19978;-75
2020/12/28 07:44:33;;;;;;;;;;;3.10;99.90;;;;;;5068823;28;20357;-75
2020/12/28 07:47:03;;;;;;;;;;;3.00;99.90;;;;;;5068893;28;19960;-77
2020/12/28 07:49:30;;;;;;;;;;;3.00;99.90;;;;;;5070604;28;19915;-78
2020/12/28 07:52:08;;;;;;;;;;;3.00;99.90;;;;;;5070475;28;20320;-75
2020/12/28 07:54:39;;;;;;;;;;;3.10;99.90;;;;;;5074713;28;19948;-78
2020/12/28 07:57:07;;;;;;;;;;;3.10;99.90;;;;;;5074382;28;19913;-75
2020/12/28 07:59:41;;;;;;;;;;;3.10;99.90;;;;;;5074631;28;19915;-77
2020/12/28 08:02:13;;;;;;;;;;;3.10;99.90;;;;;;5074680;28;19991;-78
2020/12/28 08:04:38;;;;;;;;;;;3.10;99.90;;;;;;5067385;28;19959;-77
2020/12/28 08:07:04;;;;;;;;;;;3.10;99.90;;;;;;5074268;28;19909;-78
2020/12/28 08:09:29;;;;;;;;;;;3.10;99.90;;;;;;5074464;28;20407;-79
2020/12/28 08:11:58;;;;;;;;;;;3.10;99.90;;;;;;5074446;28;19970;-77
2020/12/28 08:14:24;;;;;;;;;;;3.10;99.90;;;;;;5074169;28;19916;-78
2020/12/28 08:16:50;;;;;;;;;;;3.20;99.90;;;;;;5073935;28;19908;-79
2020/12/28 08:19:33;;;;;;;;;;;3.20;99.90;;;;;;5071839;28;19909;-75
2020/12/28 08:21:59;;;;;;;;;;;3.20;99.90;;;;;;5069224;28;20369;-75
2020/12/28 08:24:25;;;;;;;;;;;3.20;99.90;;;;;;5074247;28;19935;-77
2020/12/28 08:26:50;;;;;;;;;;;3.20;99.90;;;;;;5071979;28;20324;-76
2020/12/28 08:29:16;;;;;;;;;;;3.20;99.90;;;;;;5073807;28;19909;-74
2020/12/28 08:31:42;;;;;;;;;;;3.20;99.90;;;;;;5073699;28;20273;-74
2020/12/28 08:34:07;;;;;;;;;;;3.30;99.90;;;;;;5073996;28;20383;-75
2020/12/28 08:36:33;;;;;;;;;;;3.30;99.90;;;;;;5073552;28;19908;-74
2020/12/28 08:39:09;;;;;;;;;;;3.30;99.90;;;;;;5073613;28;19909;-75
2020/12/28 08:41:35;;;;;;;;;;;3.30;99.90;;;;;;5065718;28;19913;-75
2020/12/28 08:44:00;;;;;;;;;;;3.30;99.90;;;;;;5061770;28;19915;-77
2020/12/28 08:46:26;;;;;;;;;;;3.40;99.90;;;;;;5057684;28;20020;-75
2020/12/28 08:48:51;;;;;;;;;;;3.40;99.90;;;;;;5054326;28;20357;-74
2020/12/28 08:51:19;;;;;;;;;;;3.40;99.90;;;;;;5073789;28;19919;-75
2020/12/28 08:53:45;;;;;;;;;;;3.40;99.90;;;;;;5072375;28;20008;-78
2020/12/28 08:56:11;;;;;;;;;;;3.30;99.90;;;;;;5069253;28;19928;-76
2020/12/28 08:58:36;;;;;;;;;;;3.30;99.90;;;;;;5073521;28;20363;-75
2020/12/28 09:01:03;;;;;;;;;;;3.30;99.90;;;;;;5072125;28;19909;-74
2020/12/28 09:03:38;;;;;;;;;;;3.40;99.90;;;;;;5073150;28;19922;-76
2020/12/28 09:06:04;;;;;;;;;;;3.40;99.90;;;;;;5073640;28;20357;-75
2020/12/28 09:08:30;;;;;;;;;;;3.40;99.90;;;;;;5073733;28;19935;-75
2020/12/28 09:10:55;;;;;;;;;;;3.30;99.90;;;;;;5073753;28;19917;-75
2020/12/28 09:13:21;;;;;;;;;;;3.40;99.90;;;;;;5067147;28;19962;-76
2020/12/28 09:15:46;;;;;;;;;;;3.40;99.90;;;;;;5073322;28;19912;-74
2020/12/28 09:18:12;;;;;;;;;;;3.40;99.90;;;;;;5073561;28;19916;-74
2020/12/28 09:20:37;;;;;;;;;;;3.30;99.90;;;;;;5073585;28;19951;-76
2020/12/28 09:23:03;;;;;;;;;;;3.30;99.90;;;;;;5079223;28;19908;-75
2020/12/28 09:25:28;;;;;;;;;;;3.30;99.90;;;;;;5082957;28;20368;-74
2020/12/28 09:27:54;;;;;;;;;;;3.30;99.90;;;;;;5073072;28;19908;-76
2020/12/28 09:30:20;;;;;;;;;;;3.30;99.90;;;;;;5071994;28;19962;-77
2020/12/28 09:32:45;;;;;;;;;;;3.20;99.90;;;;;;5073457;28;19978;-77
2020/12/28 09:35:11;;;;;;;;;;;3.20;99.90;;;;;;5072053;28;19909;-74
2020/12/28 09:37:36;;;;;;;;;;;3.20;99.90;;;;;;5072945;28;20387;-74
2020/12/28 09:40:02;;;;;;;;;;;3.30;99.90;;;;;;5073190;28;19908;-79
2020/12/28 09:42:28;;;;;;;;;;;3.30;99.90;;;;;;5073301;28;19931;-75
2020/12/28 09:44:53;;;;;;;;;;;3.40;99.90;;;;;;5073087;28;19908;-74
2020/12/28 09:47:19;;;;;;;;;;;3.40;99.90;;;;;;5072799;28;20262;-75
2020/12/28 09:49:44;;;;;;;;;;;3.50;99.90;;;;;;5072970;28;19962;-75
2020/12/28 09:52:10;;;;;;;;;;;3.50;99.90;;;;;;5070386;28;19913;-77
2020/12/28 09:54:35;;;;;;;;;;;3.60;99.90;;;;;;5080461;28;19999;-75
2020/12/28 09:57:07;;;;;;;;;;;3.60;99.90;;;;;;5072535;28;19915;-75
2020/12/28 09:59:37;;;;;;;;;;;3.60;99.90;;;;;;5072780;28;20006;-75
2020/12/28 10:02:02;;;;;;;;;;;3.70;99.90;;;;;;5071569;28;19948;-78
2020/12/28 10:04:28;;;;;;;;;;;3.70;99.90;;;;;;5071367;28;19989;-75
2020/12/28 10:06:53;;;;;;;;;;;3.70;99.90;;;;;;5072298;28;19908;-74
2020/12/28 10:09:19;;;;;;;;;;;3.70;99.90;;;;;;5072448;28;20327;-75
2020/12/28 10:11:44;;;;;;;;;;;3.70;99.90;;;;;;5072609;28;19916;-76
2020/12/28 10:14:10;;;;;;;;;;;3.70;99.90;;;;;;5071822;28;20266;-75
2020/12/28 10:16:35;;;;;;;;;;;3.70;99.90;;;;;;5070643;28;19958;-74
2020/12/28 10:19:01;;;;;;;;;;;3.80;99.90;;;;;;5072270;28;20015;-77
2020/12/28 10:21:27;;;;;;;;;;;3.80;99.90;;;;;;5072515;28;19908;-75
2020/12/28 10:23:53;;;;;;;;;;;3.80;99.90;;;;;;5086049;28;20570;-77
2020/12/28 10:26:19;;;;;;;;;;;3.90;99.90;;;;;;5074679;28;19951;-74
2020/12/28 10:28:45;;;;;;;;;;;3.90;99.90;;;;;;5052199;28;19948;-76
2020/12/28 10:31:11;;;;;;;;;;;3.90;99.90;;;;;;5052148;28;19967;-74
2020/12/28 10:33:38;;;;;;;;;;;3.90;99.90;;;;;;5052382;28;20416;-77
2020/12/28 10:36:03;;;;;;;;;;;4.00;99.90;;;;;;5071434;28;19909;-74
2020/12/28 10:38:29;;;;;;;;;;;4.00;99.90;;;;;;5072225;28;20383;-76
2020/12/28 10:40:54;;;;;;;;;;;4.00;99.90;;;;;;5072032;28;19973;-74
2020/12/28 10:43:20;;;;;;;;;;;4.00;99.90;;;;;;5070651;28;20007;-75
2020/12/28 10:45:45;;;;;;;;;;;4.00;99.90;;;;;;5071714;28;20357;-78
2020/12/28 10:48:11;;;;;;;;;;;4.00;99.90;;;;;;5071771;28;19909;-74
2020/12/28 10:50:36;;;;;;;;;;;4.00;99.90;;;;;;5072030;28;19927;-74
2020/12/28 10:53:01;;;;;;;;;;;4.00;99.90;;;;;;5074320;28;19908;-76
2020/12/28 10:55:27;;;;;;;;;;;4.00;99.90;;;;;;5070987;28;19912;-74
2020/12/28 10:57:52;;;;;;;;;;;4.00;99.90;;;;;;5071223;28;19938;-74
2020/12/28 11:00:18;;;;;;;;;;;4.10;99.90;;;;;;5071757;28;19909;-74
2020/12/28 11:02:43;;;;;;;;;;;4.10;99.90;;;;;;5070144;28;19954;-78
2020/12/28 11:05:09;;;;;;;;;;;4.10;99.90;;;;;;5071314;28;19908;-74
2020/12/28 11:07:34;;;;;;;;;;;4.10;99.90;;;;;;5069522;28;19916;-74
2020/12/28 11:10:00;;;;;;;;;;;4.10;99.90;;;;;;5071080;28;19991;-75
2020/12/28 11:12:25;;;;;;;;;;;4.10;99.90;;;;;;5069883;28;20318;-74
2020/12/28 11:14:51;;;;;;;;;;;4.10;99.90;;;;;;5071150;28;20129;-74
2020/12/28 11:17:16;;;;;;;;;;;4.10;99.90;;;;;;5069581;28;19955;-74
2020/12/28 11:19:42;;;;;;;;;;;4.10;99.90;;;;;;5067258;28;19908;-77
2020/12/28 11:22:07;;;;;;;;;;;4.20;99.90;;;;;;5070881;28;20381;-74
2020/12/28 11:24:33;;;;;;;;;;;4.20;99.90;;;;;;5071028;28;20273;-74
2020/12/28 11:26:58;;;;;;;;;;;4.20;99.90;;;;;;5070690;28;19999;-75
2020/12/28 11:29:24;;;;;;;;;;;4.20;99.90;;;;;;5070850;28;20280;-74
2020/12/28 11:31:49;;;;;;;;;;;4.20;99.90;;;;;;5071007;28;19916;-74
2020/12/28 11:34:15;;;;;;;;;;;4.20;99.90;;;;;;5070840;28;19912;-74
2020/12/28 11:36:41;;;;;;;;;;;4.20;99.90;;;;;;5070781;28;19908;-74
2020/12/28 11:39:06;;;;;;;;;;;4.30;99.90;;;;;;5069502;28;19908;-77
2020/12/28 11:41:32;;;;;;;;;;;4.30;99.90;;;;;;5070870;28;20285;-75
2020/12/28 11:43:57;;;;;;;;;;;4.30;99.90;;;;;;5071218;28;19991;-75
2020/12/28 11:46:23;;;;;;;;;;;4.40;99.90;;;;;;5070774;28;19956;-75
2020/12/28 11:48:49;;;;;;;;;;;4.40;99.90;;;;;;5071001;28;20377;-74
2020/12/28 11:51:14;;;;;;;;;;;4.40;99.90;;;;;;5070717;28;20395;-74
2020/12/28 11:53:40;;;;;;;;;;;4.50;99.90;;;;;;5071111;28;19970;-75
2020/12/28 11:56:11;;;;;;;;;;;4.50;99.90;;;;;;5070568;28;19999;-74
2020/12/28 11:58:38;;;;;;;;;;;4.50;99.90;;;;;;5070876;28;19916;-75
2020/12/28 12:01:04;;;;;;;;;;;4.60;99.90;;;;;;5070952;28;19958;-76
2020/12/28 12:03:30;;;;;;;;;;;4.70;99.90;;;;;;5071091;28;19909;-74
2020/12/28 12:05:59;;;;;;;;;;;4.70;99.90;;;;;;5070612;28;19912;-77
2020/12/28 12:08:25;;;;;;;;;;;4.70;99.90;;;;;;5070683;28;19935;-74
2020/12/28 12:10:51;;;;;;;;;;;4.60;99.90;;;;;;5070869;28;20003;-74
2020/12/28 12:13:17;;;;;;;;;;;4.60;99.90;;;;;;5069386;28;20006;-74
2020/12/28 12:15:46;;;;;;;;;;;4.70;99.90;;;;;;5069274;28;19948;-75
2020/12/28 12:18:12;;;;;;;;;;;4.70;99.90;;;;;;5070652;28;20003;-79
2020/12/28 12:20:37;;;;;;;;;;;4.80;99.90;;;;;;5071623;28;20019;-75
2020/12/28 12:23:03;;;;;;;;;;;4.70;99.90;;;;;;5073444;28;19909;-74
2020/12/28 12:25:28;;;;;;;;;;;4.70;99.90;;;;;;5070942;28;19909;-75
2020/12/28 12:27:54;;;;;;;;;;;4.60;99.90;;;;;;5070257;28;19909;-75
2020/12/28 12:30:19;;;;;;;;;;;4.60;99.90;;;;;;5070539;28;19927;-74
2020/12/28 12:32:45;;;;;;;;;;;4.60;99.90;;;;;;5070700;28;19913;-75
2020/12/28 12:35:10;;;;;;;;;;;4.60;99.90;;;;;;5069706;28;20069;-75
2020/12/28 12:37:35;;;;;;;;;;;4.60;99.90;;;;;;5070389;28;19909;-76
2020/12/28 12:40:01;;;;;;;;;;;4.50;99.90;;;;;;5074374;28;19912;-75
2020/12/28 12:42:26;;;;;;;;;;;4.50;99.90;;;;;;5072724;28;19915;-75
2020/12/28 12:44:52;;;;;;;;;;;4.50;99.90;;;;;;5074399;28;19908;-77
2020/12/28 12:47:18;;;;;;;;;;;4.40;99.90;;;;;;5073696;28;19923;-74
2020/12/28 12:49:43;;;;;;;;;;;4.40;99.90;;;;;;5073855;28;19908;-75
2020/12/28 12:52:26;;;;;;;;;;;4.30;99.90;;;;;;5073487;28;20444;-75
2020/12/28 12:54:53;;;;;;;;;;;4.30;99.90;;;;;;5074092;28;20412;-78
2020/12/28 12:57:19;;;;;;;;;;;4.30;99.90;;;;;;5073390;28;20384;-75
2020/12/28 13:02:28;;;;;;;;;;;4.30;99.90;;;;;;5075750;28;19914;-77
2020/12/28 13:04:54;;;;;;;;;;;4.30;99.90;;;;;;5076035;28;19909;-75
2020/12/28 13:07:19;;;;;;;;;;;4.30;99.90;;;;;;5068349;28;19935;-75
2020/12/28 13:09:45;;;;;;;;;;;4.40;99.90;;;;;;5073299;28;19996;-76
2020/12/28 13:12:10;;;;;;;;;;;4.40;99.90;;;;;;5072805;28;19979;-79
2020/12/28 13:14:36;;;;;;;;;;;4.40;99.90;;;;;;5070751;28;19908;-75
2020/12/28 13:17:02;;;;;;;;;;;4.40;99.90;;;;;;5073173;28;19912;-75
2020/12/28 13:19:27;;;;;;;;;;;4.30;99.90;;;;;;5073252;28;19919;-75
2020/12/28 13:21:52;;;;;;;;;;;4.30;99.90;;;;;;5073454;28;20323;-77
2020/12/28 13:24:18;;;;;;;;;;;4.20;99.90;;;;;;5073342;28;19909;-77
2020/12/28 13:26:43;;;;;;;;;;;4.10;99.90;;;;;;5073196;28;19908;-75
2020/12/28 13:29:10;;;;;;;;;;;4.10;99.90;;;;;;5073266;28;19932;-76
2020/12/28 13:31:35;;;;;;;;;;;4.10;99.90;;;;;;5072964;28;19921;-78
2020/12/28 13:34:01;;;;;;;;;;;4.10;99.90;;;;;;5071891;28;20292;-75
2020/12/28 13:36:33;;;;;;;;;;;4.10;99.90;;;;;;5071681;28;19916;-75
2020/12/28 13:38:58;;;;;;;;;;;4.10;99.90;;;;;;5067534;28;20007;-75
2020/12/28 13:41:24;;;;;;;;;;;4.10;99.90;;;;;;5072707;28;19944;-76
2020/12/28 13:43:49;;;;;;;;;;;4.10;99.90;;;;;;5072767;28;20399;-75
2020/12/28 13:46:15;;;;;;;;;;;4.10;99.90;;;;;;5072540;28;19960;-75
2020/12/28 13:48:41;;;;;;;;;;;4.10;99.90;;;;;;5072717;28;20011;-75
2020/12/28 13:51:06;;;;;;;;;;;4.00;99.90;;;;;;5071710;28;19919;-76
2020/12/28 13:53:32;;;;;;;;;;;4.00;99.90;;;;;;5072931;28;19908;-76
2020/12/28 13:55:57;;;;;;;;;;;4.00;99.90;;;;;;5072382;28;19962;-75
2020/12/28 13:58:22;;;;;;;;;;;4.00;99.90;;;;;;5072562;28;20266;-75
2020/12/28 14:00:48;;;;;;;;;;;4.00;99.90;;;;;;5072521;28;19908;-75
2020/12/28 14:03:13;;;;;;;;;;;4.00;99.90;;;;;;5072626;28;20003;-75
2020/12/28 14:05:39;;;;;;;;;;;4.00;99.90;;;;;;5072181;28;20175;-76
2020/12/28 14:08:05;;;;;;;;;;;4.00;99.90;;;;;;5072150;28;19916;-75
2020/12/28 14:10:30;;;;;;;;;;;3.90;99.90;;;;;;5077809;28;19920;-75
2020/12/28 14:12:56;;;;;;;;;;;3.90;99.90;;;;;;5072408;28;20342;-78
2020/12/28 14:15:21;;;;;;;;;;;3.90;99.90;;;;;;5072254;28;20026;-75
2020/12/28 14:17:47;;;;;;;;;;;3.90;99.90;;;;;;5071848;28;19931;-75
2020/12/28 14:20:12;;;;;;;;;;;3.90;99.90;;;;;;5063134;28;19916;-75
2020/12/28 14:22:38;;;;;;;;;;;3.80;99.90;;;;;;5073346;28;19916;-75
2020/12/28 14:25:03;;;;;;;;;;;3.80;99.90;;;;;;5072062;28;19955;-74
2020/12/28 14:27:29;;;;;;;;;;;3.70;99.90;;;;;;5070245;28;19913;-76